Time;durP1;ratioP1;P1;durP2;ratioP2;P2;SDS_P1;SDS_P2;PMS_P1;PMS_P2;Temp;Humidity;BMP_temperature;BMP_pressure;BME280_temperature;BME280_humidity;BME280_pressure;Samples;Min_cycle;Max_cycle;Signal;HPM_P1;HPM_P2
2023/12/03 00:02:23;;;;;;;28.85;11.77;;;;;;;-146.27;88.61;34283.56;5101396;28;20040;-68
2023/12/03 00:04:51;;;;;;;22.33;9.20;;;;;;;-146.27;88.64;34315.31;5098317;28;20024;-69
2023/12/03 00:07:16;;;;;;;17.50;8.75;;;;;;;-146.27;88.66;34315.31;5093834;28;20102;-69
2023/12/03 00:09:42;;;;;;;18.77;8.85;;;;;;;-146.27;88.18;34337.13;5075820;28;20111;-69
2023/12/03 00:12:08;;;;;;;17.48;8.98;;;;;;;-146.27;88.38;34364.94;5103041;28;20081;-69
2023/12/03 00:14:34;;;;;;;20.33;9.32;;;;;;;-146.27;88.46;34370.88;5103283;28;20035;-69
2023/12/03 00:17:00;;;;;;;19.67;7.20;;;;;;;-146.27;88.65;34355.00;5102850;28;20532;-69
2023/12/03 00:19:26;;;;;;;17.95;8.02;;;;;;;-146.27;88.52;34358.97;5075744;28;20111;-69
2023/12/03 00:21:51;;;;;;;16.50;8.40;;;;;;;-146.27;88.40;34398.66;5098279;28;20023;-69
2023/12/03 00:24:17;;;;;;;17.85;8.73;;;;;;;-146.27;88.40;34351.03;5094672;28;20384;-68
2023/12/03 00:26:42;;;;;;;11.00;5.55;;;;;;;-146.27;88.32;34349.03;5099197;28;20035;-69
2023/12/03 00:29:08;;;;;;;17.90;6.65;;;;;;;-146.27;88.29;34362.94;5100896;28;20033;-67
2023/12/03 00:31:34;;;;;;;11.75;5.68;;;;;;;-146.27;88.38;34349.03;5096615;28;20631;-69
2023/12/03 00:34:02;;;;;;;11.90;5.43;;;;;;;-146.27;88.49;34390.72;5099245;28;20028;-69
2023/12/03 00:36:27;;;;;;;13.05;6.13;;;;;;;-146.27;88.15;34347.06;5079504;28;20590;-68
2023/12/03 00:38:53;;;;;;;12.18;5.93;;;;;;;-146.27;88.51;34374.84;5096141;28;20070;-69
2023/12/03 00:41:19;;;;;;;10.70;5.32;;;;;;;-146.27;88.21;34366.91;5101087;28;20027;-69
2023/12/03 00:43:44;;;;;;;15.18;6.38;;;;;;;-146.27;88.53;34347.06;5105276;28;20471;-69
2023/12/03 00:46:10;;;;;;;18.23;7.75;;;;;;;-146.27;88.24;34347.06;5097782;28;20020;-69
2023/12/03 00:48:35;;;;;;;15.68;6.90;;;;;;;-146.27;88.36;34358.97;5099904;28;20027;-69
2023/12/03 00:51:00;;;;;;;19.60;7.47;;;;;;;-146.27;88.59;34366.91;5085379;28;20315;-70
2023/12/03 00:53:26;;;;;;;21.48;9.18;;;;;;;-146.27;88.50;34343.09;5090231;28;20032;-71
2023/12/03 00:55:52;;;;;;;22.90;10.18;;;;;;;-146.27;88.10;34398.66;5091385;28;20426;-69
2023/12/03 00:58:18;;;;;;;26.30;11.40;;;;;;;-146.27;88.17;34331.19;5096487;28;20024;-70
2023/12/03 01:00:43;;;;;;;27.55;12.57;;;;;;;-146.27;88.40;34364.94;5093967;28;20035;-69
2023/12/03 01:03:08;;;;;;;26.38;10.82;;;;;;;-146.27;88.20;34378.81;5102048;28;20479;-69
2023/12/03 01:05:34;;;;;;;34.13;12.30;;;;;;;-146.27;88.29;34388.75;5094118;28;20114;-68
2023/12/03 01:07:59;;;;;;;27.30;12.35;;;;;;;-146.27;88.47;34368.91;5092839;28;20097;-69
2023/12/03 01:10:24;;;;;;;29.45;11.75;;;;;;;-146.27;88.46;34370.88;5092057;28;20063;-70
2023/12/03 01:12:50;;;;;;;35.15;13.10;;;;;;;-146.27;88.43;34378.81;5095601;28;20052;-69
2023/12/03 01:15:15;;;;;;;29.50;14.32;;;;;;;-146.27;88.33;34404.63;5101120;28;20563;-68
2023/12/03 01:17:41;;;;;;;26.92;14.25;;;;;;;-146.27;88.42;34398.66;5100430;28;20369;-70
2023/12/03 01:20:07;;;;;;;32.55;14.63;;;;;;;-146.27;88.51;34374.84;5096302;28;20051;-68
2023/12/03 01:22:33;;;;;;;31.10;13.15;;;;;;;-146.27;88.66;34374.84;5097650;28;20045;-68
2023/12/03 01:24:59;;;;;;;32.72;13.93;;;;;;;-146.27;88.56;34404.63;5091703;28;20104;-70
2023/12/03 01:27:24;;;;;;;34.78;14.70;;;;;;;-146.27;88.70;34339.13;5097145;28;20449;-70
2023/12/03 01:29:50;;;;;;;32.55;14.80;;;;;;;-146.27;88.69;34370.88;5095277;28;20445;-70
2023/12/03 01:32:15;;;;;;;34.65;14.10;;;;;;;-146.27;88.33;34394.69;5102163;28;20024;-70
2023/12/03 01:34:40;;;;;;;30.70;14.43;;;;;;;-146.27;88.43;34374.84;5095907;28;20067;-69
2023/12/03 01:37:06;;;;;;;29.98;13.60;;;;;;;-146.27;88.33;34390.72;5097520;28;20023;-69
2023/12/03 01:39:31;;;;;;;35.75;16.15;;;;;;;-146.27;88.40;34376.84;5100625;28;20031;-69
2023/12/03 01:41:56;;;;;;;36.83;15.50;;;;;;;-146.27;88.40;34370.88;5106760;28;20020;-68
2023/12/03 01:44:22;;;;;;;38.88;17.33;;;;;;;-146.27;88.44;34398.66;5097717;28;20032;-69
2023/12/03 01:46:48;;;;;;;30.15;15.20;;;;;;;-146.27;89.04;34454.22;5095801;28;20028;-69
2023/12/03 01:49:14;;;;;;;37.83;16.27;;;;;;;-146.27;89.10;34390.72;5092601;28;20031;-69
2023/12/03 01:51:40;;;;;;;37.75;17.08;;;;;;;-146.27;89.91;34406.59;5093172;28;20085;-69
2023/12/03 01:54:05;;;;;;;36.95;15.77;;;;;;;-146.27;89.33;34370.88;5086775;28;21367;-69
2023/12/03 01:56:31;;;;;;;39.65;17.30;;;;;;;-146.27;89.19;34374.84;5088820;28;20023;-70
2023/12/03 01:58:57;;;;;;;32.45;15.93;;;;;;;-146.27;89.33;34374.84;5098605;28;20035;-69
2023/12/03 02:01:22;;;;;;;34.42;16.67;;;;;;;-146.27;89.98;34382.78;5094551;28;20056;-69
2023/12/03 02:03:48;;;;;;;35.63;16.48;;;;;;;-146.27;90.21;34349.03;5081350;28;20065;-69
2023/12/03 02:06:13;;;;;;;33.55;17.98;;;;;;;-146.27;89.53;34355.00;5100333;28;20028;-69
2023/12/03 02:08:39;;;;;;;39.42;19.17;;;;;;;-146.27;89.37;34368.91;5097933;28;20468;-69
2023/12/03 02:11:06;;;;;;;39.47;18.75;;;;;;;-146.27;88.88;34351.03;5106625;28;20032;-69
2023/12/03 02:13:37;;;;;;;32.75;17.88;;;;;;;-146.27;88.91;34362.94;5094169;28;20019;-69
2023/12/03 02:16:03;;;;;;;34.95;17.63;;;;;;;-146.27;89.21;34347.06;5092472;28;20369;-70
2023/12/03 02:18:31;;;;;;;42.00;19.05;;;;;;;-146.27;89.09;34339.13;5091667;28;20057;-68
2023/12/03 02:20:57;;;;;;;35.92;19.33;;;;;;;-146.27;89.29;34355.00;5092348;28;20062;-70
2023/12/03 02:23:22;;;;;;;39.35;19.67;;;;;;;-146.27;89.01;34331.19;5090949;28;20107;-70
2023/12/03 02:25:50;;;;;;;42.33;20.75;;;;;;;-146.27;88.94;34355.00;5100319;28;20106;-68
2023/12/03 02:28:16;;;;;;;42.72;20.42;;;;;;;-146.27;89.28;34343.09;5107062;28;20027;-69
2023/12/03 02:30:41;;;;;;;42.83;20.33;;;;;;;-146.27;89.09;34341.09;5102675;28;20032;-67
2023/12/03 02:33:07;;;;;;;38.78;20.27;;;;;;;-146.27;88.96;34325.22;5099840;28;20032;-70
2023/12/03 02:35:32;;;;;;;44.78;20.13;;;;;;;-146.27;88.98;34327.22;5105438;28;20024;-68
2023/12/03 02:37:57;;;;;;;36.15;20.42;;;;;;;-146.27;88.38;34358.97;5103648;28;20601;-70
2023/12/03 02:40:23;;;;;;;33.53;18.90;;;;;;;-146.27;89.28;34376.84;5095687;28;20434;-69
2023/12/03 02:42:48;;;;;;;39.15;20.55;;;;;;;-146.27;89.23;34339.13;5102639;28;20015;-68
2023/12/03 02:45:13;;;;;;;40.42;20.55;;;;;;;-146.27;89.42;34416.53;5100784;28;20092;-69
2023/12/03 02:47:39;;;;;;;37.55;21.25;;;;;;;-146.27;89.01;34406.59;5093972;28;20399;-67
2023/12/03 02:50:04;;;;;;;38.25;21.05;;;;;;;-146.27;88.78;34376.84;5094923;28;20027;-68
2023/12/03 02:52:30;;;;;;;42.25;21.33;;;;;;;-146.27;88.90;34408.59;5104765;28;20020;-69
2023/12/03 02:54:55;;;;;;;37.80;20.60;;;;;;;-146.27;88.75;34406.59;5096840;28;20834;-69
2023/12/03 02:57:21;;;;;;;35.90;20.25;;;;;;;-146.27;88.50;34442.31;5092502;28;20498;-69
2023/12/03 02:59:46;;;;;;;39.47;21.70;;;;;;;-146.27;89.48;34438.34;5095779;28;20035;-70
2023/12/03 03:02:11;;;;;;;40.42;22.08;;;;;;;-146.27;88.90;34374.84;5090047;28;20439;-69
2023/12/03 03:04:37;;;;;;;35.50;20.50;;;;;;;-146.27;88.72;34424.47;5096229;28;20565;-69
2023/12/03 03:07:02;;;;;;;41.10;22.73;;;;;;;-146.27;88.79;34406.59;5097581;28;20039;-69
2023/12/03 03:09:27;;;;;;;38.95;20.67;;;;;;;-146.27;88.89;34426.44;5090651;28;20039;-69
2023/12/03 03:11:54;;;;;;;38.83;21.90;;;;;;;-146.27;89.23;34442.31;5101595;28;20027;-68
2023/12/03 03:14:20;;;;;;;35.88;20.70;;;;;;;-146.27;89.41;34450.25;5097132;28;20509;-68
2023/12/03 03:16:45;;;;;;;42.08;22.67;;;;;;;-146.27;88.96;34438.34;5097364;28;20028;-70
2023/12/03 03:19:11;;;;;;;41.05;21.08;;;;;;;-146.27;88.57;34472.09;5090246;28;20047;-68
2023/12/03 03:21:39;;;;;;;42.22;21.75;;;;;;;-146.27;88.75;34450.25;5089919;28;20329;-69
2023/12/03 03:24:06;;;;;;;39.13;20.63;;;;;;;-146.27;88.57;34474.09;5095991;28;20488;-69
2023/12/03 03:26:31;;;;;;;41.95;23.05;;;;;;;-146.27;88.83;34454.22;5090775;28;20127;-69
2023/12/03 03:28:57;;;;;;;39.97;22.00;;;;;;;-146.27;88.80;34450.25;5089381;28;20555;-68
2023/12/03 03:31:22;;;;;;;44.25;21.75;;;;;;;-146.27;88.57;34468.13;5106126;28;20020;-69
2023/12/03 03:33:49;;;;;;;38.13;21.95;;;;;;;-146.27;89.55;34497.91;5100042;28;20468;-69
2023/12/03 03:36:15;;;;;;;37.33;20.55;;;;;;;-146.27;89.21;34476.06;5099136;28;20031;-69
2023/12/03 03:38:41;;;;;;;41.97;23.27;;;;;;;-146.27;89.09;34474.09;5089493;28;20035;-69
2023/12/03 03:41:07;;;;;;;43.75;21.83;;;;;;;-146.27;88.86;34456.22;5090873;28;20016;-69
2023/12/03 03:43:32;;;;;;;49.50;21.95;;;;;;;-146.27;88.37;34480.03;5093741;28;20480;-69
2023/12/03 03:45:58;;;;;;;41.00;21.42;;;;;;;-146.27;88.48;34458.22;5091700;28;20032;-69
2023/12/03 03:48:23;;;;;;;43.63;22.30;;;;;;;-146.27;88.73;34493.94;5090118;28;20088;-71
2023/12/03 03:50:48;;;;;;;38.78;21.00;;;;;;;-146.27;88.76;34501.88;5091466;28;20050;-69
2023/12/03 03:53:14;;;;;;;42.25;20.65;;;;;;;-146.27;88.16;34458.22;5099013;28;20115;-68
2023/12/03 03:55:39;;;;;;;42.40;20.40;;;;;;;-146.27;88.05;34468.13;5092279;28;20476;-69
2023/12/03 03:58:04;;;;;;;38.67;21.45;;;;;;;-146.27;87.94;34482.03;5092063;28;20097;-69
2023/12/03 04:00:30;;;;;;;41.60;20.42;;;;;;;-146.27;87.88;34474.09;5094252;28;20031;-70
2023/12/03 04:02:56;;;;;;;41.13;21.23;;;;;;;-146.27;88.08;34505.84;5091651;28;20069;-69
2023/12/03 04:05:21;;;;;;;47.85;22.27;;;;;;;-146.27;88.06;34507.81;5097101;28;20051;-70
2023/12/03 04:07:47;;;;;;;39.63;19.80;;;;;;;-146.27;88.07;34505.84;5097072;28;20042;-68
2023/12/03 04:10:12;;;;;;;43.45;21.80;;;;;;;-146.27;88.43;34523.69;5098646;28;20519;-69
2023/12/03 04:12:37;;;;;;;44.50;21.48;;;;;;;-146.27;88.72;34509.81;5089368;28;20036;-68
2023/12/03 04:15:04;;;;;;;40.17;20.77;;;;;;;-146.27;88.35;34501.88;5089728;28;20020;-69
2023/12/03 04:17:30;;;;;;;41.88;20.95;;;;;;;-146.27;88.54;34495.91;5095957;28;20095;-68
2023/12/03 04:19:55;;;;;;;41.65;20.75;;;;;;;-146.27;88.63;34519.72;5101445;28;20380;-68
2023/12/03 04:22:23;;;;;;;46.33;21.27;;;;;;;-146.27;88.22;34486.00;5093929;28;20020;-70
2023/12/03 04:24:48;;;;;;;44.88;20.23;;;;;;;-146.27;88.12;34470.13;5096502;28;20034;-69
2023/12/03 04:27:13;;;;;;;45.63;20.95;;;;;;;-146.27;88.01;34497.91;5088592;28;20044;-69
2023/12/03 04:29:39;;;;;;;42.75;19.15;;;;;;;-146.27;88.11;34519.72;5088793;28;20120;-69
2023/12/03 04:32:05;;;;;;;44.58;20.45;;;;;;;-146.27;88.05;34517.75;5104206;28;20027;-70
2023/12/03 04:34:30;;;;;;;43.72;20.08;;;;;;;-146.27;88.02;34505.84;5100694;28;20031;-70
2023/12/03 04:36:55;;;;;;;42.45;20.30;;;;;;;-146.27;87.94;34517.75;5097909;28;20024;-71
2023/12/03 04:39:21;;;;;;;46.50;21.15;;;;;;;-146.27;87.92;34533.63;5090336;28;20114;-70
2023/12/03 04:41:46;;;;;;;41.85;20.75;;;;;;;-146.27;88.19;34509.81;5094198;28;20020;-69
2023/12/03 04:44:11;;;;;;;44.05;20.95;;;;;;;-146.27;88.05;34505.84;5094794;28;20154;-69
2023/12/03 04:46:42;;;;;;;41.88;20.75;;;;;;;-146.27;87.91;34491.94;5092866;28;20043;-70
2023/12/03 04:49:08;;;;;;;57.45;22.02;;;;;;;-146.27;88.28;34501.88;5096247;28;20049;-70
2023/12/03 04:51:33;;;;;;;47.13;21.02;;;;;;;-146.27;88.55;34507.81;5098292;28;20027;-70
2023/12/03 04:53:59;;;;;;;47.90;22.77;;;;;;;-146.27;88.27;34491.94;5096743;28;20478;-69
2023/12/03 04:56:24;;;;;;;49.60;22.25;;;;;;;-146.27;88.14;34513.78;5092608;28;20032;-70
2023/12/03 04:58:50;;;;;;;42.20;20.50;;;;;;;-146.27;88.00;34527.66;5098109;28;20039;-69
2023/12/03 05:01:18;;;;;;;48.20;21.17;;;;;;;-146.27;88.24;34517.75;5095025;28;20031;-69
2023/12/03 05:03:45;;;;;;;46.67;20.40;;;;;;;-146.27;88.00;34487.97;5094612;28;20027;-69
2023/12/03 05:06:11;;;;;;;53.28;19.75;;;;;;;-146.27;88.02;34525.69;5088363;28;20029;-71
2023/12/03 05:08:36;;;;;;;43.95;21.42;;;;;;;-146.27;87.96;34497.91;5102635;28;20431;-70
2023/12/03 05:11:05;;;;;;;49.03;20.80;;;;;;;-146.27;87.75;34505.84;5101472;28;20024;-71
2023/12/03 05:13:31;;;;;;;42.47;19.13;;;;;;;-146.27;87.83;34541.56;5093379;28;20028;-70
2023/12/03 05:15:56;;;;;;;48.58;20.45;;;;;;;-146.27;87.83;34503.84;5095213;28;20030;-70
2023/12/03 05:18:22;;;;;;;52.60;21.17;;;;;;;-146.27;88.06;34531.63;5090812;28;20036;-69
2023/12/03 05:20:48;;;;;;;48.00;19.55;;;;;;;-146.27;88.08;34541.56;5092222;28;20056;-70
2023/12/03 05:23:14;;;;;;;50.25;20.73;;;;;;;-146.27;87.81;34533.63;5095962;28;20050;-71
2023/12/03 05:25:39;;;;;;;42.45;19.02;;;;;;;-146.27;87.83;34515.75;5102733;28;20534;-70
2023/12/03 05:28:04;;;;;;;49.30;20.67;;;;;;;-146.27;87.78;34539.56;5079224;28;20143;-69
2023/12/03 05:30:30;;;;;;;49.40;20.38;;;;;;;-146.27;87.90;34529.66;5102691;28;20613;-70
2023/12/03 05:32:56;;;;;;;50.08;20.30;;;;;;;-146.27;88.12;34525.69;5097237;28;20499;-69
2023/12/03 05:35:22;;;;;;;37.65;19.67;;;;;;;-146.27;88.18;34557.44;5098470;28;20031;-70
2023/12/03 05:37:47;;;;;;;45.60;19.15;;;;;;;-146.27;87.81;34501.88;5096641;28;20478;-70
2023/12/03 05:40:13;;;;;;;49.88;20.15;;;;;;;-146.27;87.78;34521.72;5097035;28;20050;-69
2023/12/03 05:42:38;;;;;;;48.28;22.27;;;;;;;-146.27;88.06;34567.38;5112598;28;20506;-68
2023/12/03 05:45:04;;;;;;;48.45;20.13;;;;;;;-146.27;88.47;34541.56;5101579;28;20050;-70
2023/12/03 05:47:30;;;;;;;49.60;21.75;;;;;;;-146.27;88.38;34517.75;5101522;28;20040;-68
2023/12/03 05:50:00;;;;;;;51.35;22.65;;;;;;;-146.27;88.24;34537.59;5095768;28;20050;-69
2023/12/03 05:52:26;;;;;;;55.17;22.45;;;;;;;-146.27;88.10;34517.75;5105847;28;20084;-69
2023/12/03 05:54:51;;;;;;;48.35;21.38;;;;;;;-146.27;87.89;34539.56;5095701;28;20020;-69
2023/12/03 05:57:17;;;;;;;53.70;22.35;;;;;;;-146.27;87.94;34529.66;5093180;28;20121;-68
2023/12/03 05:59:42;;;;;;;61.00;23.80;;;;;;;-146.27;88.50;34537.59;5095246;28;20132;-69
2023/12/03 06:02:08;;;;;;;58.20;24.23;;;;;;;-146.27;88.49;34575.31;5099667;28;20028;-69
2023/12/03 06:04:33;;;;;;;57.28;23.27;;;;;;;-146.27;88.25;34513.78;5095446;28;20034;-68
2023/12/03 06:06:58;;;;;;;59.95;23.05;;;;;;;-146.27;88.05;34545.53;5098607;28;20031;-68
2023/12/03 06:09:24;;;;;;;66.53;23.13;;;;;;;-146.27;88.02;34529.66;5101325;28;20034;-69
2023/12/03 06:11:49;;;;;;;50.78;21.27;;;;;;;-146.27;88.10;34561.41;5104088;28;20480;-69
2023/12/03 06:14:15;;;;;;;57.20;22.85;;;;;;;-146.27;88.13;34551.50;5098329;28;20480;-69
2023/12/03 06:16:40;;;;;;;59.97;24.90;;;;;;;-146.27;87.92;34555.47;5092558;28;20537;-69
2023/12/03 06:19:06;;;;;;;55.60;23.02;;;;;;;-146.27;88.08;34541.56;5104320;28;20036;-70
2023/12/03 06:21:31;;;;;;;60.17;23.33;;;;;;;-146.27;87.81;34553.47;5100370;28;20055;-69
2023/12/03 06:23:56;;;;;;;57.72;23.60;;;;;;;-146.27;87.94;34549.50;5105475;28;20459;-69
2023/12/03 06:26:22;;;;;;;61.10;24.67;;;;;;;-146.27;87.67;34549.50;5076779;28;20083;-70
2023/12/03 06:28:47;;;;;;;69.18;27.10;;;;;;;-146.27;87.72;34547.53;5093474;28;20031;-69
2023/12/03 06:31:13;;;;;;;66.78;25.92;;;;;;;-146.27;88.04;34561.41;5100086;28;20028;-70
2023/12/03 06:33:38;;;;;;;60.00;24.17;;;;;;;-146.27;87.72;34529.66;5091665;28;20070;-68
2023/12/03 06:36:04;;;;;;;58.40;23.27;;;;;;;-146.27;87.88;34569.34;5092500;28;20024;-71
2023/12/03 06:38:29;;;;;;;57.40;22.25;;;;;;;-146.27;87.79;34545.53;5099339;28;20097;-70
2023/12/03 06:40:54;;;;;;;57.10;22.73;;;;;;;-146.27;88.08;34545.53;5102639;28;20118;-70
2023/12/03 06:43:20;;;;;;;64.47;25.23;;;;;;;-146.27;87.75;34517.75;5100548;28;20034;-69
2023/12/03 06:45:45;;;;;;;54.17;22.30;;;;;;;-146.27;87.83;34565.38;5089631;28;20072;-70
2023/12/03 06:48:11;;;;;;;58.40;24.92;;;;;;;-146.27;87.88;34571.34;5096983;28;20098;-70
2023/12/03 06:50:36;;;;;;;61.95;22.52;;;;;;;-146.27;87.81;34561.41;5096483;28;20047;-70
2023/12/03 06:53:02;;;;;;;63.00;24.48;;;;;;;-146.27;87.94;34553.47;5094572;28;20024;-69
2023/12/03 06:55:27;;;;;;;63.38;23.73;;;;;;;-146.27;87.85;34557.44;5097347;28;20020;-70
2023/12/03 06:57:53;;;;;;;58.53;23.58;;;;;;;-146.27;87.76;34543.53;5094053;28;20126;-71
2023/12/03 07:00:19;;;;;;;55.35;22.77;;;;;;;-146.27;87.86;34541.56;5102111;28;20031;-70
2023/12/03 07:02:44;;;;;;;63.80;24.35;;;;;;;-146.27;88.06;34541.56;5076153;28;20059;-70
2023/12/03 07:05:10;;;;;;;66.72;23.83;;;;;;;-146.27;88.18;34581.25;5099138;28;20111;-70
2023/12/03 07:07:36;;;;;;;58.30;24.13;;;;;;;-146.27;87.86;34557.44;5091658;28;20775;-70
2023/12/03 07:10:02;;;;;;;53.88;23.15;;;;;;;-146.27;88.09;34575.31;5096696;28;20078;-70
2023/12/03 07:12:28;;;;;;;55.72;23.88;;;;;;;-146.27;87.68;34577.28;5102011;28;20119;-70
2023/12/03 07:14:53;;;;;;;58.72;24.17;;;;;;;-146.27;87.69;34569.34;5102979;28;20118;-70
2023/12/03 07:17:19;;;;;;;68.68;25.17;;;;;;;-146.27;87.75;34553.47;5095362;28;20028;-69
2023/12/03 07:19:45;;;;;;;61.22;24.92;;;;;;;-146.27;87.50;34567.38;5098817;28;20031;-69
2023/12/03 07:22:11;;;;;;;61.55;24.38;;;;;;;-146.27;87.97;34571.34;5105649;28;20488;-71
2023/12/03 07:24:40;;;;;;;65.13;24.48;;;;;;;-146.27;87.80;34553.47;5092193;28;20106;-70
2023/12/03 07:27:06;;;;;;;63.22;23.83;;;;;;;-146.27;87.69;34585.22;5094248;28;20483;-70
2023/12/03 07:29:31;;;;;;;65.25;24.75;;;;;;;-146.27;87.62;34537.59;5094952;28;20035;-70
2023/12/03 07:31:57;;;;;;;62.72;24.30;;;;;;;-146.27;87.59;34589.19;5099133;28;20028;-69
2023/12/03 07:34:22;;;;;;;66.22;24.15;;;;;;;-146.27;87.59;34569.34;5101690;28;20023;-71
2023/12/03 07:36:47;;;;;;;57.05;23.73;;;;;;;-146.27;87.79;34525.69;5102565;28;20024;-68
2023/12/03 07:39:13;;;;;;;65.95;22.95;;;;;;;-146.27;87.55;34583.25;5096044;28;20020;-70
2023/12/03 07:41:39;;;;;;;57.97;23.10;;;;;;;-146.27;87.71;34573.31;5089109;28;20027;-69
2023/12/03 07:44:04;;;;;;;69.45;24.48;;;;;;;-146.27;87.71;34573.31;5092918;28;20251;-69
2023/12/03 07:46:31;;;;;;;61.38;23.67;;;;;;;-146.27;87.72;34559.44;5094675;28;20035;-70
2023/12/03 07:48:56;;;;;;;64.07;24.35;;;;;;;-146.27;87.81;34551.50;5091645;28;20102;-69
2023/12/03 07:51:22;;;;;;;68.13;24.50;;;;;;;-146.27;87.49;34549.50;5091049;28;20162;-70
2023/12/03 07:53:47;;;;;;;64.10;23.75;;;;;;;-146.27;87.48;34585.22;5098193;28;20263;-70
2023/12/03 07:56:13;;;;;;;68.75;24.00;;;;;;;-146.27;87.86;34577.28;5083409;28;20643;-69
2023/12/03 07:58:38;;;;;;;60.63;22.35;;;;;;;-146.27;87.71;34543.53;5092459;28;20023;-70
2023/12/03 08:01:05;;;;;;;62.85;25.25;;;;;;;-146.27;87.72;34533.63;5094259;28;20026;-69
2023/12/03 08:03:30;;;;;;;66.97;23.13;;;;;;;-146.27;87.64;34553.47;5098081;28;20434;-69
2023/12/03 08:05:56;;;;;;;65.65;25.05;;;;;;;-146.27;87.52;34565.38;5110166;28;20023;-69
2023/12/03 08:08:21;;;;;;;62.88;23.45;;;;;;;-146.27;87.45;34565.38;5097689;28;20404;-71
2023/12/03 08:10:46;;;;;;;54.78;23.25;;;;;;;-146.27;87.50;34569.34;5094478;28;20100;-70
2023/12/03 08:13:12;;;;;;;67.30;24.10;;;;;;;-146.27;87.33;34525.69;5104740;28;20376;-69
2023/12/03 08:15:37;;;;;;;62.58;24.75;;;;;;;-146.27;87.59;34589.19;5092211;28;20020;-68
2023/12/03 08:18:03;;;;;;;53.17;22.67;;;;;;;-146.27;87.54;34569.34;5094350;28;20105;-71
2023/12/03 08:20:28;;;;;;;62.40;26.10;;;;;;;-146.27;87.92;34569.34;5095894;28;20084;-71
2023/12/03 08:22:54;;;;;;;60.83;25.50;;;;;;;-146.27;87.72;34585.22;5090812;28;20040;-73
2023/12/03 08:25:19;;;;;;;61.08;25.58;;;;;;;-146.27;87.64;34553.47;5097516;28;20085;-69
2023/12/03 08:27:45;;;;;;;61.30;26.15;;;;;;;-146.27;87.42;34553.47;5095015;28;20063;-71
2023/12/03 08:30:10;;;;;;;69.45;25.30;;;;;;;-146.27;87.72;34555.47;5098524;28;20040;-70
2023/12/03 08:32:36;;;;;;;61.70;23.45;;;;;;;-146.27;87.59;34557.44;5097058;28;20027;-70
2023/12/03 08:35:01;;;;;;;60.28;23.63;;;;;;;-146.27;87.62;34529.66;5093486;28;20144;-69
2023/12/03 08:37:27;;;;;;;60.08;23.95;;;;;;;-146.27;87.56;34533.63;5104957;28;20035;-72
2023/12/03 08:39:54;;;;;;;56.10;23.15;;;;;;;-146.27;87.49;34537.59;5093763;28;20395;-71
2023/12/03 08:42:19;;;;;;;66.18;24.52;;;;;;;-146.27;87.37;34531.63;5097913;28;20157;-70
2023/12/03 08:44:45;;;;;;;70.00;24.23;;;;;;;-146.27;87.47;34549.50;5101868;28;20094;-70
2023/12/03 08:47:11;;;;;;;64.50;23.60;;;;;;;-146.27;87.59;34579.28;5095267;28;20043;-70
2023/12/03 08:49:36;;;;;;;61.90;24.80;;;;;;;-146.27;87.64;34537.59;5106798;28;20036;-70
2023/12/03 08:52:02;;;;;;;58.33;22.05;;;;;;;-146.27;87.24;34517.75;5105298;28;20031;-70
2023/12/03 08:54:27;;;;;;;58.50;23.63;;;;;;;-146.27;86.82;34543.53;5105281;28;20038;-70
2023/12/03 08:56:52;;;;;;;53.55;20.98;;;;;;;-146.27;86.81;34497.91;5092433;28;20491;-71
2023/12/03 08:59:19;;;;;;;56.40;20.88;;;;;;;-146.27;86.82;34517.75;5105951;28;20106;-70
2023/12/03 09:01:45;;;;;;;46.88;19.92;;;;;;;-146.27;86.45;34495.91;5095280;28;20012;-70
2023/12/03 09:04:12;;;;;;;54.15;20.50;;;;;;;-146.27;86.76;34497.91;5101029;28;20026;-69
2023/12/03 09:06:38;;;;;;;50.25;19.17;;;;;;;-146.27;86.54;34468.13;5109351;28;20024;-69
2023/12/03 09:09:04;;;;;;;51.70;20.20;;;;;;;-146.27;86.65;34474.09;5092574;28;20028;-69
2023/12/03 09:11:29;;;;;;;49.35;19.42;;;;;;;-146.27;86.20;34513.78;5106728;28;20024;-69
2023/12/03 09:13:55;;;;;;;45.30;19.58;;;;;;;-146.27;86.08;34495.91;5098610;28;20019;-70
2023/12/03 09:16:20;;;;;;;37.80;17.33;;;;;;;-146.27;86.42;34493.94;5104496;28;20024;-69
2023/12/03 09:18:46;;;;;;;41.03;18.83;;;;;;;-146.27;86.02;34452.25;5092434;28;20031;-69
2023/12/03 09:21:12;;;;;;;45.60;19.42;;;;;;;-146.27;85.49;34444.31;5101526;28;20031;-70
2023/12/03 09:23:39;;;;;;;50.13;16.90;;;;;;;-146.27;84.83;34470.13;5110764;28;20028;-71
2023/12/03 09:26:05;;;;;;;54.42;18.73;;;;;;;-146.27;84.50;34454.22;5092826;28;20043;-70
2023/12/03 09:28:32;;;;;;;39.42;17.55;;;;;;;-146.27;84.20;34412.56;5104353;28;20032;-71
2023/12/03 09:30:58;;;;;;;36.42;16.52;;;;;;;-146.27;84.03;34424.47;5099926;28;20088;-71
2023/12/03 09:33:26;;;;;;;32.90;15.95;;;;;;;-146.27;83.32;34424.47;5086031;28;20082;-71
2023/12/03 09:35:52;;;;;;;39.13;16.02;;;;;;;-146.27;83.78;34406.59;5091653;28;20114;-71
2023/12/03 09:38:17;;;;;;;34.80;15.65;;;;;;;-146.27;83.16;34382.78;5096937;28;20138;-71
2023/12/03 09:40:44;;;;;;;36.78;15.15;;;;;;;-146.27;82.60;34462.19;5093299;28;20024;-70
2023/12/03 09:43:12;;;;;;;32.40;13.93;;;;;;;-146.27;82.96;34406.59;5093517;28;20031;-71
2023/12/03 09:45:38;;;;;;;34.83;14.88;;;;;;;-146.27;82.77;34418.50;5102968;28;20031;-71
2023/12/03 09:48:06;;;;;;;37.45;14.65;;;;;;;-146.27;81.09;34434.38;5092404;28;20522;-71
2023/12/03 09:50:34;;;;;;;28.73;12.55;;;;;;;-146.27;81.51;34406.59;5076831;28;20117;-71
2023/12/03 09:53:02;;;;;;;31.98;14.05;;;;;;;-146.27;79.98;34446.28;5102826;27;20019;-69
2023/12/03 09:55:28;;;;;;;28.38;12.30;;;;;;;-146.27;80.31;34442.31;5098029;28;20027;-72
2023/12/03 09:57:55;;;;;;;31.20;14.40;;;;;;;-146.27;80.70;34414.53;5074085;28;20032;-71
2023/12/03 10:00:22;;;;;;;29.05;12.95;;;;;;;-146.27;80.47;34414.53;5099196;28;20032;-70
2023/12/03 10:02:51;;;;;;;41.60;16.08;;;;;;;-146.27;80.11;34398.66;5102832;28;20024;-68
2023/12/03 10:05:16;;;;;;;31.42;12.95;;;;;;;-146.27;79.58;34394.69;5093108;28;20073;-70
2023/12/03 10:07:46;;;;;;;30.65;13.07;;;;;;;-146.27;77.89;34426.44;5079995;28;20066;-72
2023/12/03 10:10:17;;;;;;;26.35;12.93;;;;;;;-146.27;80.34;34368.91;5074016;28;20028;-70
2023/12/03 10:12:43;;;;;;;31.30;13.40;;;;;;;-146.27;80.59;34358.97;5098351;28;20020;-70
2023/12/03 10:15:09;;;;;;;34.92;12.90;;;;;;;-146.27;78.62;34394.69;5096977;27;20222;-69
2023/12/03 10:17:38;;;;;;;25.58;12.38;;;;;;;-146.27;78.35;34362.94;5097097;28;20051;-71
2023/12/03 10:20:21;;;;;;;41.05;12.85;;;;;;;-146.27;77.81;34374.84;5087298;28;20068;-71
2023/12/03 10:23:04;;;;;;;28.48;12.10;;;;;;;-146.27;78.65;34396.69;5100915;28;20312;-71
2023/12/03 10:25:35;;;;;;;28.40;11.50;;;;;;;-146.27;77.72;34394.69;5093961;28;20500;-71
2023/12/03 10:28:06;;;;;;;26.98;11.25;;;;;;;-146.27;78.49;34378.81;5103083;28;20039;-71
2023/12/03 10:30:50;;;;;;;24.20;10.95;;;;;;;-146.27;77.92;34398.66;5101845;27;20060;-71
2023/12/03 10:33:15;;;;;;;28.85;11.45;;;;;;;-146.27;76.85;34390.72;5093903;28;20159;-71
2023/12/03 10:35:41;;;;;;;27.98;11.73;;;;;;;-146.27;77.52;34392.72;5096302;28;20032;-69
2023/12/03 10:38:09;;;;;;;30.25;11.55;;;;;;;-146.27;77.37;34372.88;5092534;28;20019;-71
2023/12/03 10:40:35;;;;;;;31.15;11.18;;;;;;;-146.27;76.79;34390.72;5100115;28;20046;-70
2023/12/03 10:43:01;;;;;;;23.52;10.52;;;;;;;-146.27;76.29;34390.72;5109448;28;20019;-71
2023/12/03 10:45:27;;;;;;;27.45;11.57;;;;;;;-146.27;75.96;34414.53;5091313;28;20059;-71
2023/12/03 10:47:58;;;;;;;23.40;10.23;;;;;;;-146.27;75.97;34386.75;5094312;28;20471;-71
2023/12/03 10:50:25;;;;;;;21.23;9.85;;;;;;;-146.27;76.00;34412.56;5090607;28;20529;-71
2023/12/03 10:52:55;;;;;;;27.15;11.57;;;;;;;-146.27;76.24;34378.81;5092987;28;20020;-70
2023/12/03 10:55:20;;;;;;;21.95;10.30;;;;;;;-146.27;75.62;34432.41;5097764;28;20399;-70
2023/12/03 10:58:07;;;;;;;25.23;10.32;;;;;;;-146.27;74.73;34434.38;5107029;27;20023;-71